sensor_id;sensor_type;location;lat;lon;timestamp;P1;durP1;ratioP1;P2;durP2;ratioP2
15968;SDS011;8085;53.472;9.794;2024-03-25T00:01:43;5.78;;;1.13;;
15968;SDS011;8085;53.472;9.794;2024-03-25T00:04:09;5.45;;;1.27;;
15968;SDS011;8085;53.472;9.794;2024-03-25T00:06:35;2.25;;;0.80;;
15968;SDS011;8085;53.472;9.794;2024-03-25T00:09:02;3.83;;;0.85;;
15968;SDS011;8085;53.472;9.794;2024-03-25T00:11:31;3.45;;;1.02;;
15968;SDS011;8085;53.472;9.794;2024-03-25T00:13:57;5.20;;;0.85;;
15968;SDS011;8085;53.472;9.794;2024-03-25T00:16:24;4.97;;;0.77;;
15968;SDS011;8085;53.472;9.794;2024-03-25T00:18:49;3.97;;;0.73;;
15968;SDS011;8085;53.472;9.794;2024-03-25T00:21:16;5.45;;;0.77;;
15968;SDS011;8085;53.472;9.794;2024-03-25T00:23:42;6.45;;;0.80;;
15968;SDS011;8085;53.472;9.794;2024-03-25T00:26:09;1.50;;;0.60;;
15968;SDS011;8085;53.472;9.794;2024-03-25T00:28:36;2.20;;;0.90;;
15968;SDS011;8085;53.472;9.794;2024-03-25T00:31:03;6.13;;;1.50;;
15968;SDS011;8085;53.472;9.794;2024-03-25T00:33:29;4.32;;;1.40;;
15968;SDS011;8085;53.472;9.794;2024-03-25T00:35:57;4.95;;;0.90;;
15968;SDS011;8085;53.472;9.794;2024-03-25T00:38:23;3.13;;;0.80;;
15968;SDS011;8085;53.472;9.794;2024-03-25T00:40:50;4.50;;;0.73;;
15968;SDS011;8085;53.472;9.794;2024-03-25T00:43:16;5.45;;;1.10;;
15968;SDS011;8085;53.472;9.794;2024-03-25T00:45:44;5.05;;;0.75;;
15968;SDS011;8085;53.472;9.794;2024-03-25T00:48:11;6.10;;;0.88;;
15968;SDS011;8085;53.472;9.794;2024-03-25T00:50:38;6.60;;;0.82;;
15968;SDS011;8085;53.472;9.794;2024-03-25T00:53:04;4.90;;;1.00;;
15968;SDS011;8085;53.472;9.794;2024-03-25T00:55:32;5.97;;;1.25;;
15968;SDS011;8085;53.472;9.794;2024-03-25T00:57:58;6.53;;;0.90;;
15968;SDS011;8085;53.472;9.794;2024-03-25T01:00:25;6.15;;;1.05;;
15968;SDS011;8085;53.472;9.794;2024-03-25T01:02:52;8.55;;;0.93;;
15968;SDS011;8085;53.472;9.794;2024-03-25T01:05:19;7.03;;;1.23;;
15968;SDS011;8085;53.472;9.794;2024-03-25T01:07:45;4.47;;;0.95;;
15968;SDS011;8085;53.472;9.794;2024-03-25T01:10:12;5.57;;;1.20;;
15968;SDS011;8085;53.472;9.794;2024-03-25T01:12:38;5.25;;;0.90;;
15968;SDS011;8085;53.472;9.794;2024-03-25T01:15:06;4.45;;;0.90;;
15968;SDS011;8085;53.472;9.794;2024-03-25T01:17:32;4.25;;;0.73;;
15968;SDS011;8085;53.472;9.794;2024-03-25T01:20:00;6.03;;;1.13;;
15968;SDS011;8085;53.472;9.794;2024-03-25T01:22:26;3.22;;;0.90;;
15968;SDS011;8085;53.472;9.794;2024-03-25T01:24:53;4.25;;;0.77;;
15968;SDS011;8085;53.472;9.794;2024-03-25T01:27:19;2.65;;;0.60;;
15968;SDS011;8085;53.472;9.794;2024-03-25T01:29:46;3.75;;;0.98;;
15968;SDS011;8085;53.472;9.794;2024-03-25T01:32:12;3.65;;;0.85;;
15968;SDS011;8085;53.472;9.794;2024-03-25T01:34:39;6.07;;;0.98;;
15968;SDS011;8085;53.472;9.794;2024-03-25T01:37:06;3.97;;;1.23;;
15968;SDS011;8085;53.472;9.794;2024-03-25T01:39:33;2.70;;;1.10;;
15968;SDS011;8085;53.472;9.794;2024-03-25T01:41:59;4.22;;;0.77;;
15968;SDS011;8085;53.472;9.794;2024-03-25T01:44:25;3.58;;;0.75;;
15968;SDS011;8085;53.472;9.794;2024-03-25T01:46:51;5.35;;;0.90;;
15968;SDS011;8085;53.472;9.794;2024-03-25T01:49:20;3.28;;;0.73;;
15968;SDS011;8085;53.472;9.794;2024-03-25T01:51:46;4.30;;;0.70;;
15968;SDS011;8085;53.472;9.794;2024-03-25T01:54:14;5.40;;;0.68;;
15968;SDS011;8085;53.472;9.794;2024-03-25T01:56:42;6.93;;;0.75;;
15968;SDS011;8085;53.472;9.794;2024-03-25T01:59:11;4.40;;;0.90;;
15968;SDS011;8085;53.472;9.794;2024-03-25T02:01:38;3.90;;;0.70;;
15968;SDS011;8085;53.472;9.794;2024-03-25T02:04:06;5.60;;;0.70;;
15968;SDS011;8085;53.472;9.794;2024-03-25T02:06:32;3.25;;;0.63;;
15968;SDS011;8085;53.472;9.794;2024-03-25T02:09:00;4.00;;;0.68;;
15968;SDS011;8085;53.472;9.794;2024-03-25T02:11:30;4.32;;;1.05;;
15968;SDS011;8085;53.472;9.794;2024-03-25T02:13:57;4.18;;;0.90;;
15968;SDS011;8085;53.472;9.794;2024-03-25T02:16:23;4.30;;;0.75;;
15968;SDS011;8085;53.472;9.794;2024-03-25T02:18:52;3.53;;;1.00;;
15968;SDS011;8085;53.472;9.794;2024-03-25T02:21:17;6.55;;;0.80;;
15968;SDS011;8085;53.472;9.794;2024-03-25T02:23:44;4.72;;;0.80;;
15968;SDS011;8085;53.472;9.794;2024-03-25T02:26:13;5.50;;;0.68;;
15968;SDS011;8085;53.472;9.794;2024-03-25T02:28:40;7.30;;;0.90;;
15968;SDS011;8085;53.472;9.794;2024-03-25T02:31:06;3.67;;;0.70;;
15968;SDS011;8085;53.472;9.794;2024-03-25T02:33:32;3.22;;;0.63;;
15968;SDS011;8085;53.472;9.794;2024-03-25T02:35:58;3.15;;;0.73;;
15968;SDS011;8085;53.472;9.794;2024-03-25T02:38:25;3.88;;;0.70;;
15968;SDS011;8085;53.472;9.794;2024-03-25T02:40:51;5.63;;;0.90;;
15968;SDS011;8085;53.472;9.794;2024-03-25T02:43:19;6.00;;;0.73;;
15968;SDS011;8085;53.472;9.794;2024-03-25T02:45:46;5.70;;;0.70;;
15968;SDS011;8085;53.472;9.794;2024-03-25T02:48:13;2.47;;;0.80;;
15968;SDS011;8085;53.472;9.794;2024-03-25T02:50:39;3.95;;;0.75;;
15968;SDS011;8085;53.472;9.794;2024-03-25T02:53:06;5.53;;;0.70;;
15968;SDS011;8085;53.472;9.794;2024-03-25T02:55:32;6.28;;;1.00;;
15968;SDS011;8085;53.472;9.794;2024-03-25T02:57:59;3.85;;;0.82;;
15968;SDS011;8085;53.472;9.794;2024-03-25T03:00:26;5.05;;;1.20;;
15968;SDS011;8085;53.472;9.794;2024-03-25T03:02:53;8.43;;;1.00;;
15968;SDS011;8085;53.472;9.794;2024-03-25T03:05:19;2.47;;;0.77;;
15968;SDS011;8085;53.472;9.794;2024-03-25T03:07:45;3.03;;;0.80;;
15968;SDS011;8085;53.472;9.794;2024-03-25T03:10:11;5.90;;;1.05;;
15968;SDS011;8085;53.472;9.794;2024-03-25T03:12:38;3.22;;;0.65;;
15968;SDS011;8085;53.472;9.794;2024-03-25T03:15:04;5.43;;;0.80;;
15968;SDS011;8085;53.472;9.794;2024-03-25T03:17:33;4.10;;;0.50;;
15968;SDS011;8085;53.472;9.794;2024-03-25T03:19:59;3.90;;;0.63;;
15968;SDS011;8085;53.472;9.794;2024-03-25T03:22:26;3.40;;;0.90;;
15968;SDS011;8085;53.472;9.794;2024-03-25T03:24:51;3.10;;;0.60;;
15968;SDS011;8085;53.472;9.794;2024-03-25T03:27:18;2.35;;;0.85;;
15968;SDS011;8085;53.472;9.794;2024-03-25T03:29:44;2.03;;;0.50;;
15968;SDS011;8085;53.472;9.794;2024-03-25T03:32:11;1.67;;;0.77;;
15968;SDS011;8085;53.472;9.794;2024-03-25T03:34:38;1.92;;;0.40;;
15968;SDS011;8085;53.472;9.794;2024-03-25T03:37:05;1.40;;;0.50;;
15968;SDS011;8085;53.472;9.794;2024-03-25T03:39:30;1.98;;;0.93;;
15968;SDS011;8085;53.472;9.794;2024-03-25T03:41:57;2.10;;;0.52;;
15968;SDS011;8085;53.472;9.794;2024-03-25T03:44:23;2.97;;;0.80;;
15968;SDS011;8085;53.472;9.794;2024-03-25T03:46:50;2.08;;;0.77;;
15968;SDS011;8085;53.472;9.794;2024-03-25T03:49:15;2.80;;;0.52;;
15968;SDS011;8085;53.472;9.794;2024-03-25T03:51:44;1.67;;;0.80;;
15968;SDS011;8085;53.472;9.794;2024-03-25T03:54:09;1.00;;;0.50;;
15968;SDS011;8085;53.472;9.794;2024-03-25T03:56:36;2.78;;;0.68;;
15968;SDS011;8085;53.472;9.794;2024-03-25T03:59:02;4.38;;;0.65;;
15968;SDS011;8085;53.472;9.794;2024-03-25T04:01:29;2.75;;;0.60;;
15968;SDS011;8085;53.472;9.794;2024-03-25T04:03:55;2.80;;;0.60;;
15968;SDS011;8085;53.472;9.794;2024-03-25T04:06:21;2.78;;;0.60;;
15968;SDS011;8085;53.472;9.794;2024-03-25T04:08:49;1.35;;;0.50;;
15968;SDS011;8085;53.472;9.794;2024-03-25T04:11:15;2.30;;;0.73;;
15968;SDS011;8085;53.472;9.794;2024-03-25T04:13:41;4.35;;;0.68;;
15968;SDS011;8085;53.472;9.794;2024-03-25T04:16:08;2.97;;;0.80;;
15968;SDS011;8085;53.472;9.794;2024-03-25T04:18:34;3.70;;;0.60;;
15968;SDS011;8085;53.472;9.794;2024-03-25T04:21:01;5.57;;;0.90;;
15968;SDS011;8085;53.472;9.794;2024-03-25T04:23:27;2.90;;;0.75;;
15968;SDS011;8085;53.472;9.794;2024-03-25T04:25:55;4.93;;;0.98;;
15968;SDS011;8085;53.472;9.794;2024-03-25T04:28:25;2.90;;;0.82;;
15968;SDS011;8085;53.472;9.794;2024-03-25T04:30:52;1.55;;;0.68;;
15968;SDS011;8085;53.472;9.794;2024-03-25T04:33:19;2.50;;;0.68;;
15968;SDS011;8085;53.472;9.794;2024-03-25T04:35:46;1.63;;;0.70;;
15968;SDS011;8085;53.472;9.794;2024-03-25T04:38:12;3.03;;;0.65;;
15968;SDS011;8085;53.472;9.794;2024-03-25T04:40:40;2.58;;;0.90;;
15968;SDS011;8085;53.472;9.794;2024-03-25T04:43:08;4.97;;;0.85;;
15968;SDS011;8085;53.472;9.794;2024-03-25T04:45:34;2.33;;;0.80;;
15968;SDS011;8085;53.472;9.794;2024-03-25T04:47:59;4.20;;;0.73;;
15968;SDS011;8085;53.472;9.794;2024-03-25T04:50:25;2.13;;;0.68;;
15968;SDS011;8085;53.472;9.794;2024-03-25T04:52:52;1.70;;;0.70;;
15968;SDS011;8085;53.472;9.794;2024-03-25T04:55:17;5.63;;;1.10;;
15968;SDS011;8085;53.472;9.794;2024-03-25T04:57:43;2.80;;;0.90;;
15968;SDS011;8085;53.472;9.794;2024-03-25T05:00:11;2.97;;;0.82;;
15968;SDS011;8085;53.472;9.794;2024-03-25T05:02:38;3.17;;;0.80;;
15968;SDS011;8085;53.472;9.794;2024-03-25T05:05:04;2.03;;;0.75;;
15968;SDS011;8085;53.472;9.794;2024-03-25T05:07:31;3.63;;;0.75;;
15968;SDS011;8085;53.472;9.794;2024-03-25T05:09:56;3.85;;;0.70;;
15968;SDS011;8085;53.472;9.794;2024-03-25T05:12:22;1.98;;;1.00;;
15968;SDS011;8085;53.472;9.794;2024-03-25T05:14:48;4.15;;;0.70;;
15968;SDS011;8085;53.472;9.794;2024-03-25T05:17:15;2.97;;;0.63;;
15968;SDS011;8085;53.472;9.794;2024-03-25T05:19:41;1.30;;;0.82;;
15968;SDS011;8085;53.472;9.794;2024-03-25T05:22:07;2.47;;;0.65;;
15968;SDS011;8085;53.472;9.794;2024-03-25T05:24:33;2.05;;;0.80;;
15968;SDS011;8085;53.472;9.794;2024-03-25T05:26:59;2.50;;;0.60;;
15968;SDS011;8085;53.472;9.794;2024-03-25T05:29:25;2.72;;;0.70;;
15968;SDS011;8085;53.472;9.794;2024-03-25T05:31:57;3.70;;;0.80;;
15968;SDS011;8085;53.472;9.794;2024-03-25T05:34:25;2.00;;;0.50;;
15968;SDS011;8085;53.472;9.794;2024-03-25T05:36:52;1.08;;;0.57;;
15968;SDS011;8085;53.472;9.794;2024-03-25T05:39:18;2.78;;;0.63;;
15968;SDS011;8085;53.472;9.794;2024-03-25T05:41:44;1.67;;;0.60;;
15968;SDS011;8085;53.472;9.794;2024-03-25T05:44:10;2.38;;;1.00;;
15968;SDS011;8085;53.472;9.794;2024-03-25T05:46:36;3.72;;;1.20;;
15968;SDS011;8085;53.472;9.794;2024-03-25T05:49:03;1.13;;;0.65;;
15968;SDS011;8085;53.472;9.794;2024-03-25T05:51:30;7.13;;;0.88;;
15968;SDS011;8085;53.472;9.794;2024-03-25T05:53:57;3.33;;;0.73;;
15968;SDS011;8085;53.472;9.794;2024-03-25T05:56:22;5.20;;;1.10;;
15968;SDS011;8085;53.472;9.794;2024-03-25T05:58:48;6.35;;;0.90;;
15968;SDS011;8085;53.472;9.794;2024-03-25T06:01:14;3.58;;;0.90;;
15968;SDS011;8085;53.472;9.794;2024-03-25T06:03:40;4.53;;;0.93;;
15968;SDS011;8085;53.472;9.794;2024-03-25T06:06:06;4.95;;;1.52;;
15968;SDS011;8085;53.472;9.794;2024-03-25T06:08:33;2.30;;;1.08;;
15968;SDS011;8085;53.472;9.794;2024-03-25T06:11:03;4.07;;;1.33;;
15968;SDS011;8085;53.472;9.794;2024-03-25T06:13:29;4.97;;;1.35;;
15968;SDS011;8085;53.472;9.794;2024-03-25T06:15:55;5.80;;;1.30;;
15968;SDS011;8085;53.472;9.794;2024-03-25T06:18:21;3.00;;;1.08;;
15968;SDS011;8085;53.472;9.794;2024-03-25T06:20:47;4.15;;;1.08;;
15968;SDS011;8085;53.472;9.794;2024-03-25T06:23:21;5.40;;;1.50;;
15968;SDS011;8085;53.472;9.794;2024-03-25T06:25:50;3.38;;;1.67;;
15968;SDS011;8085;53.472;9.794;2024-03-25T06:28:16;2.53;;;1.23;;
15968;SDS011;8085;53.472;9.794;2024-03-25T06:30:42;4.93;;;1.45;;
15968;SDS011;8085;53.472;9.794;2024-03-25T06:33:26;5.43;;;1.30;;
15968;SDS011;8085;53.472;9.794;2024-03-25T06:36:11;3.92;;;1.42;;
15968;SDS011;8085;53.472;9.794;2024-03-25T06:38:38;3.70;;;1.45;;
15968;SDS011;8085;53.472;9.794;2024-03-25T06:41:06;6.32;;;1.55;;
15968;SDS011;8085;53.472;9.794;2024-03-25T06:43:32;4.82;;;1.58;;
15968;SDS011;8085;53.472;9.794;2024-03-25T06:45:58;5.05;;;1.63;;
15968;SDS011;8085;53.472;9.794;2024-03-25T06:48:24;4.85;;;1.55;;
15968;SDS011;8085;53.472;9.794;2024-03-25T06:50:53;3.83;;;1.52;;
15968;SDS011;8085;53.472;9.794;2024-03-25T06:53:20;8.07;;;1.92;;
15968;SDS011;8085;53.472;9.794;2024-03-25T06:55:52;3.47;;;1.60;;
15968;SDS011;8085;53.472;9.794;2024-03-25T06:58:21;3.70;;;1.50;;
15968;SDS011;8085;53.472;9.794;2024-03-25T07:00:48;2.40;;;1.42;;
15968;SDS011;8085;53.472;9.794;2024-03-25T07:03:14;3.80;;;1.42;;
15968;SDS011;8085;53.472;9.794;2024-03-25T07:05:41;4.00;;;1.63;;
15968;SDS011;8085;53.472;9.794;2024-03-25T07:08:10;6.18;;;1.67;;
15968;SDS011;8085;53.472;9.794;2024-03-25T07:10:36;7.20;;;1.70;;
15968;SDS011;8085;53.472;9.794;2024-03-25T07:13:02;5.45;;;1.45;;
15968;SDS011;8085;53.472;9.794;2024-03-25T07:15:29;10.45;;;2.10;;
15968;SDS011;8085;53.472;9.794;2024-03-25T07:17:55;3.97;;;1.60;;
15968;SDS011;8085;53.472;9.794;2024-03-25T07:20:21;3.25;;;1.30;;
15968;SDS011;8085;53.472;9.794;2024-03-25T07:22:47;5.50;;;1.83;;
15968;SDS011;8085;53.472;9.794;2024-03-25T07:25:12;7.78;;;1.60;;
15968;SDS011;8085;53.472;9.794;2024-03-25T07:27:38;6.22;;;1.70;;
15968;SDS011;8085;53.472;9.794;2024-03-25T07:30:05;10.48;;;1.67;;
15968;SDS011;8085;53.472;9.794;2024-03-25T07:32:33;7.45;;;1.75;;
15968;SDS011;8085;53.472;9.794;2024-03-25T07:34:59;6.28;;;1.45;;
15968;SDS011;8085;53.472;9.794;2024-03-25T07:37:25;6.10;;;1.60;;
15968;SDS011;8085;53.472;9.794;2024-03-25T07:39:51;6.22;;;1.67;;
15968;SDS011;8085;53.472;9.794;2024-03-25T07:42:17;6.15;;;1.52;;
15968;SDS011;8085;53.472;9.794;2024-03-25T07:44:43;5.68;;;1.50;;
15968;SDS011;8085;53.472;9.794;2024-03-25T07:47:09;6.90;;;1.75;;
15968;SDS011;8085;53.472;9.794;2024-03-25T07:49:36;5.60;;;1.92;;
15968;SDS011;8085;53.472;9.794;2024-03-25T07:52:03;8.65;;;1.77;;
15968;SDS011;8085;53.472;9.794;2024-03-25T07:54:29;6.85;;;1.58;;
15968;SDS011;8085;53.472;9.794;2024-03-25T07:56:55;12.70;;;2.00;;
15968;SDS011;8085;53.472;9.794;2024-03-25T07:59:21;5.85;;;1.65;;
15968;SDS011;8085;53.472;9.794;2024-03-25T08:01:47;8.75;;;1.48;;
15968;SDS011;8085;53.472;9.794;2024-03-25T08:04:12;6.45;;;1.33;;
15968;SDS011;8085;53.472;9.794;2024-03-25T08:06:40;10.27;;;1.42;;
15968;SDS011;8085;53.472;9.794;2024-03-25T08:09:06;6.72;;;1.52;;
15968;SDS011;8085;53.472;9.794;2024-03-25T08:11:32;7.03;;;1.63;;
15968;SDS011;8085;53.472;9.794;2024-03-25T08:13:58;10.60;;;2.08;;
15968;SDS011;8085;53.472;9.794;2024-03-25T08:16:24;8.18;;;1.45;;
15968;SDS011;8085;53.472;9.794;2024-03-25T08:18:49;6.10;;;1.58;;
15968;SDS011;8085;53.472;9.794;2024-03-25T08:21:15;6.15;;;1.25;;
15968;SDS011;8085;53.472;9.794;2024-03-25T08:23:45;6.03;;;1.02;;
15968;SDS011;8085;53.472;9.794;2024-03-25T08:26:11;6.32;;;0.95;;
15968;SDS011;8085;53.472;9.794;2024-03-25T08:28:37;6.45;;;1.10;;
15968;SDS011;8085;53.472;9.794;2024-03-25T08:31:03;10.07;;;1.08;;
15968;SDS011;8085;53.472;9.794;2024-03-25T08:33:29;7.50;;;0.90;;
15968;SDS011;8085;53.472;9.794;2024-03-25T08:35:55;4.32;;;0.80;;
15968;SDS011;8085;53.472;9.794;2024-03-25T08:38:21;7.50;;;1.20;;
15968;SDS011;8085;53.472;9.794;2024-03-25T08:40:50;12.00;;;1.20;;
15968;SDS011;8085;53.472;9.794;2024-03-25T08:43:16;6.28;;;1.10;;
15968;SDS011;8085;53.472;9.794;2024-03-25T08:45:42;6.78;;;1.30;;
15968;SDS011;8085;53.472;9.794;2024-03-25T08:48:08;8.30;;;1.63;;
15968;SDS011;8085;53.472;9.794;2024-03-25T08:50:34;7.97;;;1.08;;
15968;SDS011;8085;53.472;9.794;2024-03-25T08:53:00;5.68;;;1.00;;
15968;SDS011;8085;53.472;9.794;2024-03-25T08:55:26;5.90;;;0.93;;
15968;SDS011;8085;53.472;9.794;2024-03-25T08:57:54;5.72;;;0.93;;
15968;SDS011;8085;53.472;9.794;2024-03-25T09:00:20;11.25;;;1.38;;
15968;SDS011;8085;53.472;9.794;2024-03-25T09:02:45;7.05;;;1.20;;
15968;SDS011;8085;53.472;9.794;2024-03-25T09:05:11;7.30;;;1.05;;
15968;SDS011;8085;53.472;9.794;2024-03-25T09:07:37;7.15;;;1.10;;
15968;SDS011;8085;53.472;9.794;2024-03-25T09:10:04;6.95;;;1.00;;
15968;SDS011;8085;53.472;9.794;2024-03-25T09:12:48;10.80;;;1.23;;
15968;SDS011;8085;53.472;9.794;2024-03-25T09:15:15;6.68;;;1.27;;
15968;SDS011;8085;53.472;9.794;2024-03-25T09:17:41;7.00;;;1.08;;
15968;SDS011;8085;53.472;9.794;2024-03-25T09:20:07;6.38;;;0.98;;
15968;SDS011;8085;53.472;9.794;2024-03-25T09:22:34;7.82;;;1.13;;
15968;SDS011;8085;53.472;9.794;2024-03-25T09:25:00;5.82;;;1.00;;
15968;SDS011;8085;53.472;9.794;2024-03-25T09:27:26;7.03;;;0.93;;
15968;SDS011;8085;53.472;9.794;2024-03-25T09:29:52;3.20;;;0.90;;
15968;SDS011;8085;53.472;9.794;2024-03-25T09:32:19;6.65;;;1.33;;
15968;SDS011;8085;53.472;9.794;2024-03-25T09:34:45;5.68;;;1.40;;
15968;SDS011;8085;53.472;9.794;2024-03-25T09:37:11;8.10;;;1.38;;
15968;SDS011;8085;53.472;9.794;2024-03-25T09:39:37;6.40;;;1.00;;
15968;SDS011;8085;53.472;9.794;2024-03-25T09:42:03;7.65;;;1.10;;
15968;SDS011;8085;53.472;9.794;2024-03-25T09:44:34;6.35;;;1.40;;
15968;SDS011;8085;53.472;9.794;2024-03-25T09:47:10;5.13;;;0.60;;
15968;SDS011;8085;53.472;9.794;2024-03-25T09:49:39;7.32;;;1.13;;
15968;SDS011;8085;53.472;9.794;2024-03-25T09:52:07;10.90;;;0.90;;
15968;SDS011;8085;53.472;9.794;2024-03-25T09:54:33;5.30;;;1.05;;
15968;SDS011;8085;53.472;9.794;2024-03-25T09:59:29;10.80;;;1.38;;
15968;SDS011;8085;53.472;9.794;2024-03-25T10:01:55;2.78;;;0.70;;
15968;SDS011;8085;53.472;9.794;2024-03-25T10:04:26;6.95;;;1.20;;
15968;SDS011;8085;53.472;9.794;2024-03-25T10:06:54;4.03;;;0.60;;
15968;SDS011;8085;53.472;9.794;2024-03-25T10:09:20;6.93;;;0.73;;
15968;SDS011;8085;53.472;9.794;2024-03-25T10:11:47;4.40;;;0.80;;
15968;SDS011;8085;53.472;9.794;2024-03-25T10:14:14;4.45;;;0.90;;
15968;SDS011;8085;53.472;9.794;2024-03-25T10:16:40;6.57;;;0.90;;
15968;SDS011;8085;53.472;9.794;2024-03-25T10:19:07;4.85;;;0.75;;
15968;SDS011;8085;53.472;9.794;2024-03-25T10:21:33;2.17;;;0.63;;
15968;SDS011;8085;53.472;9.794;2024-03-25T10:24:05;5.18;;;0.60;;
15968;SDS011;8085;53.472;9.794;2024-03-25T10:26:34;3.75;;;1.10;;
15968;SDS011;8085;53.472;9.794;2024-03-25T10:29:00;4.90;;;0.88;;
15968;SDS011;8085;53.472;9.794;2024-03-25T10:31:28;5.85;;;1.15;;
15968;SDS011;8085;53.472;9.794;2024-03-25T10:33:54;7.05;;;0.80;;
15968;SDS011;8085;53.472;9.794;2024-03-25T10:36:22;13.73;;;1.15;;
15968;SDS011;8085;53.472;9.794;2024-03-25T10:38:48;11.80;;;1.30;;
15968;SDS011;8085;53.472;9.794;2024-03-25T10:41:18;3.40;;;0.77;;
15968;SDS011;8085;53.472;9.794;2024-03-25T10:43:45;3.78;;;0.65;;
15968;SDS011;8085;53.472;9.794;2024-03-25T10:46:17;6.80;;;1.17;;
15968;SDS011;8085;53.472;9.794;2024-03-25T10:48:47;6.55;;;1.13;;
15968;SDS011;8085;53.472;9.794;2024-03-25T10:51:21;4.82;;;0.73;;
15968;SDS011;8085;53.472;9.794;2024-03-25T10:53:49;6.38;;;0.50;;
15968;SDS011;8085;53.472;9.794;2024-03-25T10:56:20;4.20;;;0.77;;
15968;SDS011;8085;53.472;9.794;2024-03-25T10:58:51;4.22;;;0.63;;
15968;SDS011;8085;53.472;9.794;2024-03-25T11:01:20;5.35;;;0.70;;
15968;SDS011;8085;53.472;9.794;2024-03-25T11:03:49;3.08;;;0.43;;
15968;SDS011;8085;53.472;9.794;2024-03-25T11:06:16;7.45;;;0.80;;
15968;SDS011;8085;53.472;9.794;2024-03-25T11:08:42;4.65;;;0.68;;
15968;SDS011;8085;53.472;9.794;2024-03-25T11:11:08;4.90;;;0.63;;
15968;SDS011;8085;53.472;9.794;2024-03-25T11:13:35;3.03;;;0.70;;
15968;SDS011;8085;53.472;9.794;2024-03-25T11:16:04;8.68;;;1.40;;
15968;SDS011;8085;53.472;9.794;2024-03-25T11:18:31;6.55;;;0.95;;
15968;SDS011;8085;53.472;9.794;2024-03-25T11:21:01;4.75;;;0.77;;
15968;SDS011;8085;53.472;9.794;2024-03-25T11:23:34;3.70;;;0.50;;
15968;SDS011;8085;53.472;9.794;2024-03-25T11:26:02;3.88;;;0.60;;
15968;SDS011;8085;53.472;9.794;2024-03-25T11:28:28;6.78;;;0.90;;
15968;SDS011;8085;53.472;9.794;2024-03-25T11:30:56;4.90;;;0.88;;
15968;SDS011;8085;53.472;9.794;2024-03-25T11:33:22;6.18;;;0.95;;
15968;SDS011;8085;53.472;9.794;2024-03-25T11:35:48;8.52;;;1.05;;
15968;SDS011;8085;53.472;9.794;2024-03-25T11:38:15;5.60;;;0.77;;
15968;SDS011;8085;53.472;9.794;2024-03-25T11:40:41;4.53;;;0.93;;
15968;SDS011;8085;53.472;9.794;2024-03-25T11:43:17;3.47;;;0.70;;
15968;SDS011;8085;53.472;9.794;2024-03-25T11:45:46;5.40;;;0.85;;
15968;SDS011;8085;53.472;9.794;2024-03-25T11:48:14;6.65;;;0.70;;
15968;SDS011;8085;53.472;9.794;2024-03-25T11:50:44;5.80;;;0.90;;
15968;SDS011;8085;53.472;9.794;2024-03-25T11:53:10;6.00;;;1.30;;
15968;SDS011;8085;53.472;9.794;2024-03-25T11:55:38;5.18;;;0.77;;
15968;SDS011;8085;53.472;9.794;2024-03-25T11:58:04;4.68;;;1.13;;
15968;SDS011;8085;53.472;9.794;2024-03-25T12:00:30;3.63;;;0.50;;
15968;SDS011;8085;53.472;9.794;2024-03-25T12:02:56;3.22;;;0.50;;
15968;SDS011;8085;53.472;9.794;2024-03-25T12:05:23;2.33;;;0.60;;
15968;SDS011;8085;53.472;9.794;2024-03-25T12:07:49;6.22;;;0.80;;
15968;SDS011;8085;53.472;9.794;2024-03-25T12:10:15;4.05;;;0.90;;
15968;SDS011;8085;53.472;9.794;2024-03-25T12:13:00;6.22;;;0.60;;
15968;SDS011;8085;53.472;9.794;2024-03-25T12:15:26;2.50;;;0.50;;
15968;SDS011;8085;53.472;9.794;2024-03-25T12:17:52;2.80;;;0.80;;
15968;SDS011;8085;53.472;9.794;2024-03-25T12:20:19;3.85;;;0.70;;
15968;SDS011;8085;53.472;9.794;2024-03-25T12:22:49;4.05;;;1.13;;
15968;SDS011;8085;53.472;9.794;2024-03-25T12:35:11;5.45;;;0.63;;
15968;SDS011;8085;53.472;9.794;2024-03-25T12:37:43;4.22;;;0.65;;
15968;SDS011;8085;53.472;9.794;2024-03-25T12:40:11;3.25;;;0.50;;
15968;SDS011;8085;53.472;9.794;2024-03-25T12:42:38;3.42;;;0.60;;
15968;SDS011;8085;53.472;9.794;2024-03-25T12:45:04;0.90;;;0.20;;
15968;SDS011;8085;53.472;9.794;2024-03-25T12:47:30;2.92;;;0.55;;
15968;SDS011;8085;53.472;9.794;2024-03-25T12:49:56;3.40;;;0.50;;
15968;SDS011;8085;53.472;9.794;2024-03-25T12:52:22;4.30;;;0.75;;
15968;SDS011;8085;53.472;9.794;2024-03-25T12:54:48;4.35;;;0.68;;
15968;SDS011;8085;53.472;9.794;2024-03-25T12:57:16;4.50;;;0.93;;
15968;SDS011;8085;53.472;9.794;2024-03-25T12:59:42;4.70;;;0.77;;
15968;SDS011;8085;53.472;9.794;2024-03-25T13:02:09;3.45;;;0.68;;
15968;SDS011;8085;53.472;9.794;2024-03-25T13:04:36;6.40;;;1.00;;
15968;SDS011;8085;53.472;9.794;2024-03-25T13:07:03;5.68;;;0.93;;
15968;SDS011;8085;53.472;9.794;2024-03-25T13:09:29;3.45;;;0.70;;
15968;SDS011;8085;53.472;9.794;2024-03-25T13:11:55;3.13;;;0.73;;
15968;SDS011;8085;53.472;9.794;2024-03-25T13:14:22;9.93;;;0.93;;
15968;SDS011;8085;53.472;9.794;2024-03-25T13:16:48;2.90;;;0.73;;
15968;SDS011;8085;53.472;9.794;2024-03-25T13:19:14;5.82;;;0.73;;
15968;SDS011;8085;53.472;9.794;2024-03-25T13:21:40;3.15;;;0.70;;
15968;SDS011;8085;53.472;9.794;2024-03-25T13:24:07;1.35;;;0.65;;
15968;SDS011;8085;53.472;9.794;2024-03-25T13:26:33;3.83;;;0.70;;
15968;SDS011;8085;53.472;9.794;2024-03-25T13:28:59;1.73;;;0.60;;
15968;SDS011;8085;53.472;9.794;2024-03-25T13:31:26;4.68;;;1.13;;
15968;SDS011;8085;53.472;9.794;2024-03-25T13:33:52;5.60;;;1.10;;
15968;SDS011;8085;53.472;9.794;2024-03-25T13:36:18;4.40;;;1.33;;
15968;SDS011;8085;53.472;9.794;2024-03-25T13:38:44;4.78;;;1.00;;
15968;SDS011;8085;53.472;9.794;2024-03-25T13:41:10;4.13;;;1.10;;
15968;SDS011;8085;53.472;9.794;2024-03-25T13:43:38;2.55;;;0.80;;
15968;SDS011;8085;53.472;9.794;2024-03-25T13:46:07;5.03;;;0.88;;
15968;SDS011;8085;53.472;9.794;2024-03-25T13:48:35;8.13;;;1.08;;
15968;SDS011;8085;53.472;9.794;2024-03-25T13:51:00;5.55;;;0.80;;
15968;SDS011;8085;53.472;9.794;2024-03-25T13:53:26;7.47;;;1.00;;
15968;SDS011;8085;53.472;9.794;2024-03-25T13:55:52;1.90;;;0.93;;
15968;SDS011;8085;53.472;9.794;2024-03-25T13:58:18;2.80;;;0.73;;
15968;SDS011;8085;53.472;9.794;2024-03-25T14:00:45;5.35;;;0.85;;
15968;SDS011;8085;53.472;9.794;2024-03-25T14:03:11;3.08;;;0.70;;
15968;SDS011;8085;53.472;9.794;2024-03-25T14:05:38;3.50;;;0.93;;
15968;SDS011;8085;53.472;9.794;2024-03-25T14:08:04;1.77;;;0.50;;
15968;SDS011;8085;53.472;9.794;2024-03-25T14:10:30;2.92;;;0.60;;
15968;SDS011;8085;53.472;9.794;2024-03-25T14:12:56;2.90;;;0.70;;
15968;SDS011;8085;53.472;9.794;2024-03-25T14:15:22;1.95;;;0.63;;
15968;SDS011;8085;53.472;9.794;2024-03-25T14:17:48;4.25;;;0.75;;
15968;SDS011;8085;53.472;9.794;2024-03-25T14:20:14;3.45;;;0.70;;
15968;SDS011;8085;53.472;9.794;2024-03-25T14:22:41;4.35;;;1.00;;
15968;SDS011;8085;53.472;9.794;2024-03-25T14:25:08;4.95;;;0.80;;
15968;SDS011;8085;53.472;9.794;2024-03-25T14:27:34;3.15;;;0.68;;
15968;SDS011;8085;53.472;9.794;2024-03-25T14:30:00;4.20;;;0.90;;
15968;SDS011;8085;53.472;9.794;2024-03-25T14:32:25;5.60;;;0.75;;
15968;SDS011;8085;53.472;9.794;2024-03-25T14:34:51;4.80;;;0.80;;
15968;SDS011;8085;53.472;9.794;2024-03-25T14:37:17;5.75;;;0.90;;
15968;SDS011;8085;53.472;9.794;2024-03-25T14:39:44;4.78;;;0.85;;
15968;SDS011;8085;53.472;9.794;2024-03-25T14:42:10;4.45;;;0.70;;
15968;SDS011;8085;53.472;9.794;2024-03-25T14:44:36;3.97;;;0.70;;
15968;SDS011;8085;53.472;9.794;2024-03-25T14:47:02;3.65;;;0.50;;
15968;SDS011;8085;53.472;9.794;2024-03-25T14:49:28;2.42;;;0.65;;
15968;SDS011;8085;53.472;9.794;2024-03-25T14:51:54;2.25;;;0.50;;
15968;SDS011;8085;53.472;9.794;2024-03-25T14:54:20;2.33;;;0.60;;
15968;SDS011;8085;53.472;9.794;2024-03-25T14:56:48;4.05;;;0.50;;
15968;SDS011;8085;53.472;9.794;2024-03-25T14:59:14;8.45;;;0.60;;
15968;SDS011;8085;53.472;9.794;2024-03-25T15:01:40;1.13;;;0.30;;
15968;SDS011;8085;53.472;9.794;2024-03-25T15:04:06;2.47;;;0.50;;
15968;SDS011;8085;53.472;9.794;2024-03-25T15:06:32;2.85;;;0.52;;
15968;SDS011;8085;53.472;9.794;2024-03-25T15:12:30;3.53;;;0.55;;
15968;SDS011;8085;53.472;9.794;2024-03-25T15:14:56;1.98;;;0.32;;